Time,TemperatureF,DewpointF,PressureIn,WindDirection,WindDirectionDegrees,WindSpeedMPH,WindSpeedGustMPH,Humidity,HourlyPrecipIn,Conditions,Clouds,dailyrainin,SoftwareType,DateUTC
2013-06-11 00:01:00,54.6,54.6,29.98,SW,217,1.0,1.0,100,0.02,,-RA,0.00,VWS V12.08,2013-06-11 04:01:00,
2013-06-11 00:02:00,54.6,54.6,29.98,SW,217,0.0,1.0,100,0.02,,-RA,0.00,VWS V12.08,2013-06-11 04:02:00,
2013-06-11 00:07:00,54.5,54.5,29.98,SW,217,0.0,1.0,100,0.03,,-RA,0.01,VWS V12.08,2013-06-11 04:07:00,
2013-06-11 00:12:00,54.3,54.3,29.97,SW,217,2.0,2.0,100,0.03,,-RA,0.01,VWS V12.08,2013-06-11 04:12:00,
2013-06-11 00:17:00,54.2,54.2,29.97,WSW,239,0.0,3.0,100,0.03,,-RA,0.01,VWS V12.08,2013-06-11 04:17:00,
2013-06-11 00:22:00,54.0,54.0,29.97,WSW,241,3.0,3.0,100,0.02,,-RA,0.01,VWS V12.08,2013-06-11 04:22:00,
2013-06-11 00:27:00,53.9,53.9,29.97,WSW,246,0.0,4.0,100,0.02,,-RA,0.01,VWS V12.08,2013-06-11 04:27:00,
2013-06-11 00:32:00,53.7,53.7,29.97,WSW,244,2.0,2.0,100,0.02,,-RA,0.01,VWS V12.08,2013-06-11 04:32:00,
2013-06-11 00:37:00,53.6,53.6,29.97,WSW,244,0.0,0.0,100,0.02,,-RA,0.01,VWS V12.08,2013-06-11 04:37:00,
2013-06-11 00:42:00,53.4,53.4,29.97,WSW,244,1.0,6.0,100,0.02,,-RA,0.01,VWS V12.08,2013-06-11 04:42:00,
2013-06-11 00:47:00,53.4,53.4,29.97,SW,232,1.0,3.0,100,0.02,,-RA,0.02,VWS V12.08,2013-06-11 04:47:00,
2013-06-11 00:52:00,53.4,53.4,29.97,SW,232,0.0,1.0,100,0.03,,-RA,0.02,VWS V12.08,2013-06-11 04:52:00,
2013-06-11 00:57:00,53.3,53.3,29.96,SW,232,0.0,0.0,100,0.03,,-RA,0.02,VWS V12.08,2013-06-11 04:57:00,
2013-06-11 01:02:00,53.3,53.3,29.96,SW,232,0.0,0.0,100,0.02,,OVC110,0.03,VWS V12.08,2013-06-11 05:02:00,
2013-06-11 01:07:00,53.4,53.4,29.96,SW,232,0.0,0.0,100,0.03,,OVC110,0.03,VWS V12.08,2013-06-11 05:07:00,
2013-06-11 01:12:00,53.4,53.4,29.95,SW,232,0.0,0.0,100,0.02,,OVC110,0.03,VWS V12.08,2013-06-11 05:12:00,
2013-06-11 01:17:00,53.4,53.4,29.95,SW,232,0.0,0.0,100,0.02,,OVC110,0.03,VWS V12.08,2013-06-11 05:17:00,
2013-06-11 01:22:00,53.4,53.4,29.95,SW,232,0.0,0.0,100,0.02,,OVC110,0.03,VWS V12.08,2013-06-11 05:22:00,
2013-06-11 01:27:00,53.4,53.4,29.94,SW,232,0.0,0.0,100,0.02,,OVC110,0.03,VWS V12.08,2013-06-11 05:27:00,
2013-06-11 01:32:00,53.4,53.4,29.94,SW,232,0.0,0.0,100,0.03,,OVC110,0.04,VWS V12.08,2013-06-11 05:32:00,
2013-06-11 01:37:00,53.4,53.4,29.94,SW,232,0.0,0.0,100,0.03,,OVC110,0.04,VWS V12.08,2013-06-11 05:37:00,
2013-06-11 01:42:00,53.4,53.4,29.93,SW,232,0.0,0.0,100,0.03,,OVC110,0.04,VWS V12.08,2013-06-11 05:42:00,
2013-06-11 01:47:00,53.6,53.6,29.93,SW,232,0.0,0.0,100,0.03,,OVC110,0.04,VWS V12.08,2013-06-11 05:47:00,
2013-06-11 01:53:00,53.6,53.6,29.93,SW,232,0.0,0.0,100,0.02,,OVC110,0.04,VWS V12.08,2013-06-11 05:53:00,
2013-06-11 01:58:00,53.6,53.6,29.92,SW,232,0.0,0.0,100,0.02,,OVC110,0.04,VWS V12.08,2013-06-11 05:58:00,
2013-06-11 02:03:00,53.6,53.6,29.92,SW,232,0.0,0.0,100,0.02,,-RA,0.04,VWS V12.08,2013-06-11 06:03:00,
2013-06-11 02:08:00,53.6,53.6,29.92,SW,232,0.0,0.0,100,0.02,,-RA,0.04,VWS V12.08,2013-06-11 06:08:00,
2013-06-11 02:13:00,53.6,53.6,29.91,SW,232,0.0,0.0,100,0.01,,-RA,0.04,VWS V12.08,2013-06-11 06:13:00,
2013-06-11 02:18:00,53.6,53.6,29.91,SW,230,1.0,2.0,100,0.01,,-RA,0.04,VWS V12.08,2013-06-11 06:18:00,
2013-06-11 02:23:00,53.6,53.6,29.91,SW,229,0.0,0.0,100,0.01,,-RA,0.04,VWS V12.08,2013-06-11 06:23:00,
2013-06-11 02:28:00,53.6,53.6,29.90,SW,229,0.0,0.0,100,0.01,,-RA,0.04,VWS V12.08,2013-06-11 06:28:00,
2013-06-11 02:33:00,53.6,53.6,29.90,SW,230,0.0,0.0,100,0.01,,-RA,0.04,VWS V12.08,2013-06-11 06:33:00,
2013-06-11 02:38:00,53.6,53.6,29.90,SW,229,0.0,0.0,100,0.01,,-RA,0.04,VWS V12.08,2013-06-11 06:38:00,
2013-06-11 02:43:00,53.6,53.6,29.90,SW,229,0.0,2.0,100,0.00,,-RA,0.04,VWS V12.08,2013-06-11 06:43:00,
2013-06-11 02:48:00,53.6,53.6,29.90,SW,229,0.0,0.0,100,0.00,,-RA,0.04,VWS V12.08,2013-06-11 06:48:00,
2013-06-11 02:53:00,53.6,53.6,29.90,SW,229,0.0,0.0,100,0.00,,-RA,0.04,VWS V12.08,2013-06-11 06:53:00,
2013-06-11 02:58:00,53.6,53.6,29.89,SW,229,0.0,2.0,100,0.00,,-RA,0.04,VWS V12.08,2013-06-11 06:58:00,
2013-06-11 03:03:00,53.6,53.6,29.89,SW,229,0.0,0.0,100,0.00,,OVC080,0.04,VWS V12.08,2013-06-11 07:03:00,
2013-06-11 03:08:00,53.6,53.6,29.89,SW,229,0.0,0.0,100,0.00,,OVC080,0.04,VWS V12.08,2013-06-11 07:08:00,
2013-06-11 03:13:00,53.6,53.6,29.88,SW,229,0.0,0.0,100,0.00,,OVC080,0.04,VWS V12.08,2013-06-11 07:13:00,
2013-06-11 03:18:00,53.6,53.6,29.88,SW,229,0.0,0.0,100,0.00,,OVC080,0.04,VWS V12.08,2013-06-11 07:18:00,
2013-06-11 03:23:00,53.6,53.6,29.88,SW,229,0.0,0.0,100,0.00,,OVC080,0.04,VWS V12.08,2013-06-11 07:23:00,
2013-06-11 03:28:00,53.6,53.6,29.87,SW,229,0.0,0.0,100,0.01,,OVC080,0.05,VWS V12.08,2013-06-11 07:28:00,
2013-06-11 03:33:00,53.6,53.6,29.87,SW,229,0.0,0.0,100,0.01,,OVC080,0.05,VWS V12.08,2013-06-11 07:33:00,
2013-06-11 03:38:00,53.6,53.6,29.87,SW,229,0.0,0.0,100,0.02,,OVC080,0.06,VWS V12.08,2013-06-11 07:38:00,
2013-06-11 03:43:00,53.6,53.6,29.87,SW,229,0.0,0.0,100,0.02,,OVC080,0.06,VWS V12.08,2013-06-11 07:43:00,
2013-06-11 03:48:00,53.6,53.6,29.87,SW,229,0.0,0.0,100,0.03,,OVC080,0.08,VWS V12.08,2013-06-11 07:48:00,
2013-06-11 03:53:00,53.6,53.6,29.87,SW,229,0.0,0.0,100,0.04,,OVC080,0.08,VWS V12.08,2013-06-11 07:53:00,
2013-06-11 03:58:00,53.6,53.6,29.86,SW,229,0.0,0.0,100,0.05,,OVC080,0.09,VWS V12.08,2013-06-11 07:58:00,
2013-06-11 04:03:00,53.6,53.6,29.86,SW,229,0.0,0.0,100,0.05,,-RA,0.09,VWS V12.08,2013-06-11 08:03:00,
2013-06-11 04:08:00,53.6,53.6,29.86,SW,229,0.0,0.0,100,0.05,,-RA,0.09,VWS V12.08,2013-06-11 08:08:00,
2013-06-11 04:13:00,53.6,53.6,29.85,SW,229,2.0,2.0,100,0.07,,-RA,0.11,VWS V12.08,2013-06-11 08:13:00,
2013-06-11 04:18:00,53.6,53.6,29.85,SW,229,1.0,2.0,100,0.08,,-RA,0.12,VWS V12.08,2013-06-11 08:18:00,
2013-06-11 04:23:00,53.4,53.4,29.85,SW,229,0.0,0.0,100,0.09,,-RA,0.13,VWS V12.08,2013-06-11 08:23:00,
2013-06-11 04:28:00,53.4,53.4,29.84,SW,229,0.0,0.0,100,0.11,,-RA,0.15,VWS V12.08,2013-06-11 08:28:00,
2013-06-11 04:33:00,53.4,53.4,29.84,SW,229,0.0,1.0,100,0.11,,-RA,0.16,VWS V12.08,2013-06-11 08:33:00,
2013-06-11 04:38:00,53.6,53.6,29.84,East,85,0.0,0.0,100,0.11,,-RA,0.16,VWS V12.08,2013-06-11 08:38:00,
2013-06-11 04:43:00,53.6,53.6,29.84,East,85,0.0,0.0,100,0.11,,-RA,0.17,VWS V12.08,2013-06-11 08:43:00,
2013-06-11 04:48:00,53.6,53.6,29.84,East,85,0.0,0.0,100,0.12,,-RA,0.18,VWS V12.08,2013-06-11 08:48:00,
2013-06-11 04:53:00,53.4,53.4,29.84,East,85,0.0,0.0,100,0.12,,-RA,0.20,VWS V12.08,2013-06-11 08:53:00,
2013-06-11 04:58:00,53.4,53.4,29.83,East,85,0.0,0.0,100,0.13,,-RA,0.21,VWS V12.08,2013-06-11 08:58:00,
2013-06-11 05:03:00,53.4,53.4,29.83,East,85,0.0,0.0,100,0.13,,-RA,0.22,VWS V12.08,2013-06-11 09:03:00,
2013-06-11 05:08:00,53.4,53.4,29.83,East,85,0.0,0.0,100,0.14,,-RA,0.23,VWS V12.08,2013-06-11 09:08:00,
2013-06-11 05:13:00,53.4,53.4,29.83,East,85,0.0,0.0,100,0.15,,-RA,0.24,VWS V12.08,2013-06-11 09:13:00,
2013-06-11 05:18:00,53.4,53.4,29.83,East,85,0.0,0.0,100,0.16,,-RA,0.25,VWS V12.08,2013-06-11 09:18:00,
2013-06-11 05:23:00,53.4,53.4,29.83,East,85,0.0,0.0,100,0.14,,-RA,0.26,VWS V12.08,2013-06-11 09:23:00,
2013-06-11 05:28:00,53.4,53.4,29.83,East,85,0.0,0.0,100,0.15,,-RA,0.27,VWS V12.08,2013-06-11 09:28:00,
2013-06-11 05:33:00,53.4,53.4,29.83,East,85,0.0,0.0,100,0.13,,-RA,0.28,VWS V12.08,2013-06-11 09:33:00,
2013-06-11 05:38:00,53.4,53.4,29.83,East,85,0.0,0.0,100,0.14,,-RA,0.29,VWS V12.08,2013-06-11 09:38:00,
2013-06-11 05:43:00,53.6,53.6,29.82,East,85,0.0,0.0,100,0.14,,RA,0.30,VWS V12.08,2013-06-11 09:43:00,
2013-06-11 05:48:00,53.6,53.6,29.82,East,85,0.0,0.0,100,0.15,,RA,0.31,VWS V12.08,2013-06-11 09:48:00,
2013-06-11 05:53:00,53.6,53.6,29.82,East,85,0.0,0.0,100,0.14,,RA,0.32,VWS V12.08,2013-06-11 09:53:00,
2013-06-11 05:58:00,53.4,53.4,29.82,East,85,0.0,0.0,100,0.14,,RA,0.32,VWS V12.08,2013-06-11 09:58:00,
2013-06-11 06:03:00,53.6,53.6,29.82,East,85,0.0,0.0,100,0.12,,RA,0.33,VWS V12.08,2013-06-11 10:03:00,
2013-06-11 06:08:00,53.6,53.6,29.82,East,85,0.0,0.0,100,0.13,,RA,0.34,VWS V12.08,2013-06-11 10:08:00,
2013-06-11 06:13:00,53.6,53.6,29.81,East,85,0.0,0.0,100,0.13,,RA,0.36,VWS V12.08,2013-06-11 10:13:00,
2013-06-11 06:18:00,53.7,53.7,29.81,East,85,0.0,0.0,100,0.12,,RA,0.37,VWS V12.08,2013-06-11 10:18:00,
2013-06-11 06:23:00,53.7,53.7,29.81,East,85,0.0,0.0,100,0.13,,RA,0.38,VWS V12.08,2013-06-11 10:23:00,
2013-06-11 06:28:00,53.7,53.7,29.80,East,85,0.0,0.0,100,0.14,,RA,0.39,VWS V12.08,2013-06-11 10:28:00,
2013-06-11 06:33:00,53.7,53.7,29.80,East,85,0.0,0.0,100,0.13,,RA,0.40,VWS V12.08,2013-06-11 10:33:00,
2013-06-11 06:38:00,53.7,53.7,29.80,East,85,0.0,0.0,100,0.14,,RA,0.41,VWS V12.08,2013-06-11 10:38:00,
2013-06-11 06:43:00,53.9,53.9,29.80,East,85,0.0,0.0,100,0.13,,RA,0.42,VWS V12.08,2013-06-11 10:43:00,
2013-06-11 06:48:00,53.9,53.9,29.80,East,85,0.0,0.0,100,0.14,,RA,0.43,VWS V12.08,2013-06-11 10:48:00,
2013-06-11 06:53:00,53.9,53.9,29.80,East,85,0.0,2.0,100,0.12,,RA,0.43,VWS V12.08,2013-06-11 10:53:00,
2013-06-11 06:58:00,53.9,53.9,29.79,East,85,0.0,1.0,100,0.13,,RA,0.44,VWS V12.08,2013-06-11 10:58:00,
2013-06-11 07:03:00,53.9,53.9,29.79,East,85,0.0,0.0,100,0.13,,-RA,0.45,VWS V12.08,2013-06-11 11:03:00,
2013-06-11 07:08:00,53.9,53.9,29.79,East,85,0.0,0.0,100,0.13,,-RA,0.45,VWS V12.08,2013-06-11 11:08:00,
2013-06-11 07:13:00,53.9,53.9,29.78,East,85,0.0,0.0,100,0.11,,-RA,0.45,VWS V12.08,2013-06-11 11:13:00,
2013-06-11 07:18:00,54.0,54.0,29.78,East,85,0.0,0.0,100,0.12,,-RA,0.46,VWS V12.08,2013-06-11 11:18:00,
2013-06-11 07:23:00,54.0,54.0,29.78,East,85,0.0,0.0,100,0.09,,-RA,0.46,VWS V12.08,2013-06-11 11:23:00,
2013-06-11 07:28:00,54.3,54.3,29.78,East,85,0.0,0.0,100,0.09,,-RA,0.47,VWS V12.08,2013-06-11 11:28:00,
2013-06-11 07:33:00,54.3,54.3,29.78,East,85,0.0,0.0,100,0.08,,-RA,0.47,VWS V12.08,2013-06-11 11:33:00,
2013-06-11 07:38:00,54.3,54.3,29.78,East,85,0.0,0.0,100,0.08,,-RA,0.47,VWS V12.08,2013-06-11 11:38:00,
2013-06-11 07:43:00,54.2,54.2,29.77,East,85,0.0,0.0,100,0.07,,-RA,0.48,VWS V12.08,2013-06-11 11:43:00,
2013-06-11 07:49:00,54.5,54.5,29.77,East,85,0.0,0.0,100,0.07,,-RA,0.48,VWS V12.08,2013-06-11 11:49:00,
2013-06-11 07:54:00,54.5,54.5,29.77,East,85,0.0,0.0,100,0.05,,-RA,0.48,VWS V12.08,2013-06-11 11:54:00,
2013-06-11 07:59:00,54.5,54.5,29.77,East,85,0.0,0.0,100,0.06,,-RA,0.49,VWS V12.08,2013-06-11 11:59:00,
2013-06-11 08:04:00,54.5,54.5,29.77,East,85,0.0,0.0,100,0.06,,-RA,0.50,VWS V12.08,2013-06-11 12:04:00,
2013-06-11 08:09:00,54.7,54.7,29.77,East,85,0.0,0.0,100,0.06,,-RA,0.50,VWS V12.08,2013-06-11 12:09:00,
2013-06-11 08:14:00,54.7,54.7,29.76,East,85,0.0,0.0,100,0.06,,-RA,0.51,VWS V12.08,2013-06-11 12:14:00,
2013-06-11 08:19:00,54.6,54.6,29.76,East,85,0.0,0.0,100,0.06,,-RA,0.51,VWS V12.08,2013-06-11 12:19:00,
2013-06-11 08:24:00,54.7,54.7,29.76,East,85,0.0,0.0,100,0.06,,-RA,0.52,VWS V12.08,2013-06-11 12:24:00,
2013-06-11 08:29:00,54.9,54.9,29.75,East,85,0.0,0.0,100,0.06,,-RA,0.52,VWS V12.08,2013-06-11 12:29:00,
2013-06-11 08:34:00,54.9,54.9,29.75,East,85,0.0,0.0,100,0.07,,-RA,0.53,VWS V12.08,2013-06-11 12:34:00,
2013-06-11 08:39:00,55.0,55.0,29.75,East,85,0.0,0.0,100,0.07,,-RA,0.53,VWS V12.08,2013-06-11 12:39:00,
2013-06-11 08:44:00,55.0,55.0,29.75,East,83,0.0,0.0,100,0.06,,-RA,0.53,VWS V12.08,2013-06-11 12:44:00,
2013-06-11 08:49:00,55.2,55.2,29.75,East,83,0.0,0.0,100,0.06,,-RA,0.53,VWS V12.08,2013-06-11 12:49:00,
2013-06-11 08:54:00,55.3,55.3,29.75,East,83,0.0,0.0,100,0.05,,-RA,0.53,VWS V12.08,2013-06-11 12:54:00,
2013-06-11 08:59:00,55.5,55.5,29.74,East,83,0.0,0.0,100,0.05,,-RA,0.53,VWS V12.08,2013-06-11 12:59:00,
2013-06-11 09:04:00,55.5,55.5,29.74,East,83,0.0,0.0,100,0.04,,-RA,0.53,VWS V12.08,2013-06-11 13:04:00,
2013-06-11 09:09:00,55.5,55.5,29.74,East,83,0.0,0.0,100,0.04,,-RA,0.53,VWS V12.08,2013-06-11 13:09:00,
2013-06-11 09:14:00,55.5,55.5,29.73,East,83,0.0,0.0,100,0.03,,-RA,0.53,VWS V12.08,2013-06-11 13:14:00,
2013-06-11 09:19:00,55.6,55.6,29.73,East,83,0.0,0.0,100,0.03,,-RA,0.53,VWS V12.08,2013-06-11 13:19:00,
2013-06-11 09:24:00,55.8,55.8,29.73,East,83,0.0,0.0,100,0.02,,-RA,0.53,VWS V12.08,2013-06-11 13:24:00,
2013-06-11 09:29:00,55.8,55.8,29.73,East,83,0.0,2.0,100,0.02,,-RA,0.53,VWS V12.08,2013-06-11 13:29:00,
2013-06-11 09:34:00,55.8,55.8,29.73,ENE,62,1.0,3.0,100,0.01,,-RA,0.53,VWS V12.08,2013-06-11 13:34:00,
2013-06-11 09:39:00,55.8,55.8,29.73,ENE,62,1.0,2.0,100,0.01,,-RA,0.53,VWS V12.08,2013-06-11 13:39:00,
2013-06-11 09:44:00,55.8,55.8,29.72,ENE,64,2.0,2.0,100,0.00,,-RA,0.53,VWS V12.08,2013-06-11 13:44:00,
2013-06-11 09:49:00,55.8,55.8,29.72,ENE,64,1.0,1.0,100,0.00,,-RA,0.53,VWS V12.08,2013-06-11 13:49:00,
2013-06-11 09:54:00,55.8,55.8,29.72,ENE,64,0.0,0.0,100,0.00,,-RA,0.53,VWS V12.08,2013-06-11 13:54:00,
2013-06-11 09:59:00,56.0,56.0,29.72,ENE,64,0.0,0.0,100,0.00,,-RA,0.53,VWS V12.08,2013-06-11 13:59:00,
2013-06-11 10:04:00,56.3,56.3,29.72,ENE,62,0.0,0.0,100,0.00,,-RA,0.53,VWS V12.08,2013-06-11 14:04:00,
2013-06-11 10:09:00,56.3,56.3,29.72,ENE,64,0.0,0.0,100,0.00,,-RA,0.53,VWS V12.08,2013-06-11 14:09:00,
2013-06-11 10:14:00,56.3,56.3,29.72,ENE,64,0.0,0.0,100,0.00,,-RA,0.53,VWS V12.08,2013-06-11 14:14:00,
2013-06-11 10:19:00,56.4,56.4,29.72,ENE,64,0.0,0.0,100,0.00,,-RA,0.53,VWS V12.08,2013-06-11 14:19:00,
2013-06-11 10:24:00,56.7,56.7,29.72,ENE,64,0.0,0.0,100,0.00,,-RA,0.53,VWS V12.08,2013-06-11 14:24:00,
2013-06-11 10:29:00,56.7,56.7,29.72,ENE,64,0.0,0.0,100,0.00,,-RA,0.53,VWS V12.08,2013-06-11 14:29:00,
2013-06-11 10:34:00,56.6,56.6,29.72,ENE,64,0.0,0.0,100,0.00,,-RA,0.53,VWS V12.08,2013-06-11 14:34:00,
2013-06-11 10:39:00,56.6,56.6,29.72,ENE,64,0.0,0.0,100,0.00,,-RA,0.53,VWS V12.08,2013-06-11 14:39:00,
2013-06-11 10:44:00,56.4,56.4,29.72,ENE,62,0.0,0.0,100,0.01,,-RA,0.54,VWS V12.08,2013-06-11 14:44:00,
2013-06-11 10:49:00,56.4,56.4,29.72,ENE,64,0.0,0.0,100,0.01,,-RA,0.54,VWS V12.08,2013-06-11 14:49:00,
2013-06-11 10:54:00,56.4,56.4,29.72,ENE,64,0.0,0.0,100,0.02,,-RA,0.55,VWS V12.08,2013-06-11 14:54:00,
2013-06-11 10:59:00,56.4,56.4,29.71,ENE,64,0.0,0.0,100,0.03,,-RA,0.56,VWS V12.08,2013-06-11 14:59:00,
2013-06-11 11:04:00,56.1,56.1,29.71,ENE,64,0.0,0.0,100,0.04,,OVC055,0.57,VWS V12.08,2013-06-11 15:04:00,
2013-06-11 11:09:00,56.1,56.1,29.71,ENE,64,0.0,0.0,100,0.05,,OVC055,0.58,VWS V12.08,2013-06-11 15:09:00,
2013-06-11 11:14:00,56.1,56.1,29.71,ENE,64,1.0,2.0,100,0.06,,OVC055,0.59,VWS V12.08,2013-06-11 15:14:00,
2013-06-11 11:19:00,56.1,56.1,29.71,ENE,64,0.0,0.0,100,0.06,,OVC055,0.59,VWS V12.08,2013-06-11 15:19:00,
2013-06-11 11:24:00,56.3,56.3,29.71,ENE,64,0.0,0.0,100,0.06,,OVC055,0.59,VWS V12.08,2013-06-11 15:24:00,
2013-06-11 11:29:00,56.4,56.4,29.70,ENE,64,0.0,0.0,100,0.07,,OVC055,0.60,VWS V12.08,2013-06-11 15:29:00,
2013-06-11 11:34:00,56.4,56.4,29.70,ENE,64,0.0,0.0,100,0.07,,OVC055,0.60,VWS V12.08,2013-06-11 15:34:00,
2013-06-11 11:39:00,56.4,56.4,29.70,ENE,64,0.0,0.0,100,0.07,,OVC055,0.60,VWS V12.08,2013-06-11 15:39:00,
2013-06-11 11:44:00,56.4,56.4,29.70,ENE,64,0.0,0.0,100,0.07,,OVC055,0.60,VWS V12.08,2013-06-11 15:44:00,
2013-06-11 11:49:00,56.3,56.3,29.70,ENE,64,0.0,0.0,100,0.07,,OVC055,0.61,VWS V12.08,2013-06-11 15:49:00,
2013-06-11 11:54:00,56.3,56.3,29.70,ENE,64,0.0,0.0,100,0.08,,OVC055,0.62,VWS V12.08,2013-06-11 15:54:00,
2013-06-11 11:59:00,56.1,56.1,29.70,ENE,64,0.0,0.0,100,0.07,,OVC055,0.63,VWS V12.08,2013-06-11 15:59:00,
2013-06-11 12:04:00,56.1,56.1,29.70,ENE,64,0.0,0.0,100,0.08,,OVC028,0.64,VWS V12.08,2013-06-11 16:04:00,
2013-06-11 12:09:00,56.0,56.0,29.70,ENE,64,0.0,0.0,100,0.07,,OVC028,0.65,VWS V12.08,2013-06-11 16:09:00,
2013-06-11 12:14:00,55.6,55.6,29.71,ENE,64,0.0,0.0,100,0.08,,OVC028,0.66,VWS V12.08,2013-06-11 16:14:00,
2013-06-11 12:19:00,55.8,55.8,29.71,ENE,64,0.0,0.0,100,0.08,,OVC028,0.67,VWS V12.08,2013-06-11 16:19:00,
2013-06-11 12:24:00,55.8,55.8,29.71,ENE,64,0.0,0.0,100,0.09,,OVC028,0.68,VWS V12.08,2013-06-11 16:24:00,
2013-06-11 12:29:00,55.6,55.6,29.70,ENE,64,0.0,0.0,100,0.09,,OVC028,0.69,VWS V12.08,2013-06-11 16:29:00,
2013-06-11 12:34:00,56.0,56.0,29.70,ENE,64,0.0,0.0,100,0.10,,OVC028,0.70,VWS V12.08,2013-06-11 16:34:00,
2013-06-11 12:39:00,56.0,56.0,29.70,ENE,64,0.0,0.0,100,0.11,,OVC028,0.71,VWS V12.08,2013-06-11 16:39:00,
2013-06-11 12:44:00,55.8,55.8,29.70,ENE,64,0.0,0.0,100,0.12,,OVC028,0.72,VWS V12.08,2013-06-11 16:44:00,
2013-06-11 12:49:00,55.6,55.6,29.70,ENE,64,1.0,2.0,100,0.12,,OVC028,0.73,VWS V12.08,2013-06-11 16:49:00,
2013-06-11 12:54:00,55.5,55.5,29.70,ENE,64,0.0,0.0,100,0.13,,OVC028,0.74,VWS V12.08,2013-06-11 16:54:00,
2013-06-11 13:00:00,55.5,55.5,29.69,SW,230,2.0,5.0,100,0.12,,OVC028,0.75,VWS V12.08,2013-06-11 17:00:00,
2013-06-11 13:05:00,55.5,55.5,29.69,SW,230,0.0,0.0,100,0.12,,-RA,0.75,VWS V12.08,2013-06-11 17:05:00,
2013-06-11 13:10:00,55.8,55.8,29.69,SW,230,0.0,0.0,100,0.10,,-RA,0.75,VWS V12.08,2013-06-11 17:10:00,
2013-06-11 13:15:00,55.8,55.8,29.69,SW,230,0.0,1.0,100,0.10,,-RA,0.75,VWS V12.08,2013-06-11 17:15:00,
2013-06-11 13:20:00,56.0,56.0,29.69,SW,230,0.0,0.0,100,0.08,,-RA,0.75,VWS V12.08,2013-06-11 17:20:00,
2013-06-11 13:25:00,56.1,56.1,29.69,SW,230,0.0,0.0,100,0.08,,-RA,0.75,VWS V12.08,2013-06-11 17:25:00,
2013-06-11 13:30:00,56.0,56.0,29.68,SW,230,0.0,0.0,100,0.07,,-RA,0.76,VWS V12.08,2013-06-11 17:30:00,
2013-06-11 13:35:00,56.1,56.1,29.68,SW,230,0.0,0.0,100,0.08,,-RA,0.77,VWS V12.08,2013-06-11 17:35:00,
2013-06-11 13:40:00,56.1,56.1,29.68,SW,230,0.0,0.0,100,0.06,,-RA,0.77,VWS V12.08,2013-06-11 17:40:00,
2013-06-11 13:45:00,56.3,56.3,29.68,SW,230,0.0,0.0,100,0.07,,-RA,0.78,VWS V12.08,2013-06-11 17:45:00,
2013-06-11 13:50:00,56.6,56.6,29.68,SW,230,0.0,0.0,100,0.05,,-RA,0.78,VWS V12.08,2013-06-11 17:50:00,
2013-06-11 13:55:00,56.7,56.7,29.68,SW,230,0.0,0.0,100,0.05,,-RA,0.78,VWS V12.08,2013-06-11 17:55:00,
2013-06-11 14:00:00,57.2,57.2,29.67,SW,215,0.0,0.0,100,0.04,,-RA,0.78,VWS V12.08,2013-06-11 18:00:00,
2013-06-11 14:05:00,57.5,57.5,29.67,SW,215,0.0,0.0,100,0.04,,-RA,0.78,VWS V12.08,2013-06-11 18:05:00,
2013-06-11 14:10:00,57.2,57.2,29.67,SW,215,0.0,0.0,100,0.03,,-RA,0.78,VWS V12.08,2013-06-11 18:10:00,
2013-06-11 14:15:00,57.2,57.2,29.66,SW,215,0.0,0.0,100,0.04,,-RA,0.79,VWS V12.08,2013-06-11 18:15:00,
2013-06-11 14:20:00,57.3,57.3,29.66,SW,215,0.0,0.0,100,0.04,,-RA,0.79,VWS V12.08,2013-06-11 18:20:00,
2013-06-11 14:25:00,57.5,57.5,29.66,SW,215,0.0,0.0,100,0.04,,-RA,0.79,VWS V12.08,2013-06-11 18:25:00,
2013-06-11 14:30:00,57.8,57.8,29.66,SW,215,0.0,0.0,100,0.03,,-RA,0.79,VWS V12.08,2013-06-11 18:30:00,
2013-06-11 14:35:00,57.9,57.9,29.66,SW,215,0.0,0.0,100,0.03,,-RA,0.79,VWS V12.08,2013-06-11 18:35:00,
2013-06-11 14:40:00,57.9,57.9,29.66,SW,215,0.0,0.0,100,0.02,,-RA,0.79,VWS V12.08,2013-06-11 18:40:00,
2013-06-11 14:45:00,57.6,57.6,29.65,SW,215,0.0,0.0,100,0.02,,-RA,0.79,VWS V12.08,2013-06-11 18:45:00,
2013-06-11 14:50:00,57.8,57.8,29.65,ENE,69,2.0,4.0,100,0.01,,-RA,0.79,VWS V12.08,2013-06-11 18:50:00,
2013-06-11 14:55:00,58.2,58.2,29.65,ENE,73,2.0,3.0,100,0.01,,-RA,0.79,VWS V12.08,2013-06-11 18:55:00,
2013-06-11 15:00:00,58.4,58.1,29.64,ENE,76,3.0,5.0,99,0.01,,-RA,0.79,VWS V12.08,2013-06-11 19:00:00,
2013-06-11 15:05:00,58.4,57.6,29.64,ENE,78,2.0,3.0,97,0.01,,-RA,0.79,VWS V12.08,2013-06-11 19:05:00,
2013-06-11 15:10:00,58.2,57.4,29.64,ENE,61,2.0,2.0,97,0.01,,-RA,0.79,VWS V12.08,2013-06-11 19:10:00,
2013-06-11 15:15:00,58.4,57.6,29.64,East,85,1.0,3.0,97,0.01,,-RA,0.79,VWS V12.08,2013-06-11 19:15:00,
2013-06-11 15:20:00,58.5,57.7,29.64,ENE,72,2.0,5.0,97,0.00,,-RA,0.79,VWS V12.08,2013-06-11 19:20:00,
2013-06-11 15:25:00,58.7,57.3,29.64,ENE,71,1.0,3.0,95,0.00,,-RA,0.79,VWS V12.08,2013-06-11 19:25:00,
2013-06-11 15:30:00,58.9,57.8,29.63,ENE,71,1.0,2.0,96,0.00,,-RA,0.79,VWS V12.08,2013-06-11 19:30:00,
2013-06-11 15:35:00,59.2,57.8,29.63,ENE,71,1.0,2.0,95,0.00,,-RA,0.79,VWS V12.08,2013-06-11 19:35:00,
2013-06-11 15:40:00,59.2,57.8,29.63,ENE,71,1.0,2.0,95,0.00,,-RA,0.79,VWS V12.08,2013-06-11 19:40:00,
2013-06-11 15:45:00,59.3,57.9,29.63,ENE,71,1.0,2.0,95,0.00,,-RA,0.79,VWS V12.08,2013-06-11 19:45:00,
2013-06-11 15:50:00,59.5,58.1,29.63,ENE,71,0.0,2.0,95,0.00,,-RA,0.79,VWS V12.08,2013-06-11 19:50:00,
2013-06-11 15:55:00,59.5,57.8,29.63,ENE,71,0.0,1.0,94,0.00,,-RA,0.79,VWS V12.08,2013-06-11 19:55:00,
2013-06-11 16:00:00,59.3,57.0,29.62,ENE,71,0.0,0.0,92,0.00,,-RA,0.79,VWS V12.08,2013-06-11 20:00:00,
2013-06-11 16:05:00,59.5,56.9,29.62,ENE,71,0.0,0.0,91,0.00,,-RA,0.79,VWS V12.08,2013-06-11 20:05:00,
2013-06-11 16:10:00,59.6,57.3,29.62,ENE,71,0.0,0.0,92,0.00,,-RA,0.79,VWS V12.08,2013-06-11 20:10:00,
2013-06-11 16:15:00,59.6,56.7,29.62,ENE,71,0.0,0.0,90,0.00,,-RA,0.79,VWS V12.08,2013-06-11 20:15:00,
2013-06-11 16:20:00,59.8,57.2,29.62,ENE,71,0.0,0.0,91,0.00,,-RA,0.79,VWS V12.08,2013-06-11 20:20:00,
2013-06-11 16:25:00,59.8,57.2,29.62,ENE,71,0.0,0.0,91,0.00,,-RA,0.79,VWS V12.08,2013-06-11 20:25:00,
2013-06-11 16:30:00,59.8,57.2,29.61,ENE,71,0.0,0.0,91,0.00,,-RA,0.79,VWS V12.08,2013-06-11 20:30:00,
2013-06-11 16:35:00,59.8,57.5,29.61,ENE,71,0.0,0.0,92,0.00,,-RA,0.79,VWS V12.08,2013-06-11 20:35:00,
2013-06-11 16:40:00,59.8,57.8,29.61,ENE,71,0.0,0.0,93,0.00,,-RA,0.79,VWS V12.08,2013-06-11 20:40:00,
2013-06-11 16:45:00,59.8,57.5,29.61,ENE,72,1.0,4.0,92,0.00,,-RA,0.79,VWS V12.08,2013-06-11 20:45:00,
2013-06-11 16:50:00,59.5,57.5,29.61,ENE,71,1.0,4.0,93,0.00,,-RA,0.79,VWS V12.08,2013-06-11 20:50:00,
2013-06-11 16:55:00,59.2,57.5,29.61,ENE,71,1.0,2.0,94,0.00,,-RA,0.79,VWS V12.08,2013-06-11 20:55:00,
2013-06-11 17:00:00,58.9,57.5,29.61,ENE,71,0.0,3.0,95,0.00,,OVC060,0.79,VWS V12.08,2013-06-11 21:00:00,
2013-06-11 17:05:00,58.4,57.0,29.61,SW,236,0.0,0.0,95,0.01,,OVC060,0.80,VWS V12.08,2013-06-11 21:05:00,
2013-06-11 17:10:00,58.1,57.0,29.61,SW,236,0.0,0.0,96,0.01,,OVC060,0.80,VWS V12.08,2013-06-11 21:10:00,
2013-06-11 17:15:00,57.9,56.8,29.61,SW,236,0.0,0.0,96,0.01,,OVC060,0.80,VWS V12.08,2013-06-11 21:15:00,
2013-06-11 17:20:00,57.8,56.7,29.61,SW,236,0.0,0.0,96,0.01,,OVC060,0.80,VWS V12.08,2013-06-11 21:20:00,
2013-06-11 17:25:00,57.8,57.0,29.61,SW,236,0.0,0.0,97,0.01,,OVC060,0.80,VWS V12.08,2013-06-11 21:25:00,
2013-06-11 17:30:00,57.9,57.3,29.60,SW,236,0.0,0.0,98,0.01,,OVC060,0.80,VWS V12.08,2013-06-11 21:30:00,
2013-06-11 17:35:00,58.1,57.5,29.60,SW,236,0.0,0.0,98,0.01,,OVC060,0.80,VWS V12.08,2013-06-11 21:35:00,
2013-06-11 17:40:00,57.6,57.0,29.60,East,80,4.0,4.0,98,0.01,,OVC060,0.80,VWS V12.08,2013-06-11 21:40:00,
2013-06-11 17:45:00,57.5,57.2,29.59,NE,44,3.0,5.0,99,0.01,,OVC060,0.80,VWS V12.08,2013-06-11 21:45:00,
2013-06-11 17:50:00,57.3,57.0,29.59,NE,48,3.0,3.0,99,0.01,,OVC060,0.80,VWS V12.08,2013-06-11 21:50:00,
2013-06-11 17:55:00,57.3,57.0,29.59,NE,51,3.0,3.0,99,0.01,,OVC060,0.80,VWS V12.08,2013-06-11 21:55:00,
2013-06-11 18:00:00,57.3,57.0,29.58,ENE,61,1.0,2.0,99,0.01,,OVC028,0.80,VWS V12.08,2013-06-11 22:00:00,
2013-06-11 18:06:00,57.3,57.0,29.58,ENE,61,0.0,0.0,99,0.01,,OVC028,0.80,VWS V12.08,2013-06-11 22:06:00,
2013-06-11 18:10:00,57.3,57.0,29.58,ENE,61,0.0,0.0,99,0.00,,OVC028,0.80,VWS V12.08,2013-06-11 22:10:00,
2013-06-11 18:16:00,57.3,57.0,29.58,ENE,61,0.0,0.0,99,0.00,,OVC028,0.80,VWS V12.08,2013-06-11 22:16:00,
2013-06-11 18:21:00,57.3,57.0,29.58,ENE,61,1.0,2.0,99,0.00,,OVC028,0.80,VWS V12.08,2013-06-11 22:21:00,
2013-06-11 18:26:00,57.5,57.2,29.58,ENE,65,0.0,3.0,99,0.00,,OVC028,0.80,VWS V12.08,2013-06-11 22:26:00,
2013-06-11 18:31:00,57.3,56.7,29.58,NE,37,0.0,0.0,98,0.00,,OVC028,0.80,VWS V12.08,2013-06-11 22:31:00,
2013-06-11 18:36:00,57.3,57.0,29.58,NE,37,0.0,0.0,99,0.00,,OVC028,0.80,VWS V12.08,2013-06-11 22:36:00,
2013-06-11 18:41:00,57.3,56.7,29.58,NE,37,0.0,0.0,98,0.00,,OVC028,0.80,VWS V12.08,2013-06-11 22:41:00,
2013-06-11 18:46:00,57.3,57.0,29.58,NE,37,0.0,0.0,99,0.00,,OVC028,0.80,VWS V12.08,2013-06-11 22:46:00,
2013-06-11 18:51:00,57.3,57.0,29.58,NE,37,0.0,0.0,99,0.00,,OVC028,0.80,VWS V12.08,2013-06-11 22:51:00,
2013-06-11 18:56:00,57.5,57.2,29.58,NE,37,0.0,0.0,99,0.00,,OVC028,0.80,VWS V12.08,2013-06-11 22:56:00,
2013-06-11 19:01:00,57.5,57.2,29.58,NE,37,0.0,0.0,99,0.00,,-RA,0.80,VWS V12.08,2013-06-11 23:01:00,
2013-06-11 19:06:00,57.3,57.0,29.58,NE,37,0.0,0.0,99,0.00,,-RA,0.80,VWS V12.08,2013-06-11 23:06:00,
2013-06-11 19:11:00,57.3,57.0,29.58,NE,37,0.0,1.0,99,0.00,,-RA,0.80,VWS V12.08,2013-06-11 23:11:00,
2013-06-11 19:16:00,57.2,57.2,29.58,NE,37,0.0,0.0,100,0.00,,-RA,0.80,VWS V12.08,2013-06-11 23:16:00,
2013-06-11 19:21:00,57.2,56.9,29.58,NE,37,0.0,1.0,99,0.00,,-RA,0.80,VWS V12.08,2013-06-11 23:21:00,
2013-06-11 19:26:00,56.9,56.6,29.58,NE,37,0.0,0.0,99,0.00,,-RA,0.80,VWS V12.08,2013-06-11 23:26:00,
2013-06-11 19:31:00,56.7,56.4,29.58,NE,37,0.0,0.0,99,0.00,,-RA,0.80,VWS V12.08,2013-06-11 23:31:00,
2013-06-11 19:36:00,56.6,56.3,29.58,NE,37,0.0,0.0,99,0.01,,-RA,0.81,VWS V12.08,2013-06-11 23:36:00,
2013-06-11 19:41:00,56.6,56.6,29.58,NE,37,1.0,2.0,100,0.01,,-RA,0.81,VWS V12.08,2013-06-11 23:41:00,
2013-06-11 19:46:00,56.3,56.3,29.57,NE,37,0.0,0.0,100,0.02,,-RA,0.82,VWS V12.08,2013-06-11 23:46:00,
2013-06-11 19:51:00,56.3,56.3,29.57,NE,37,0.0,0.0,100,0.03,,-RA,0.83,VWS V12.08,2013-06-11 23:51:00,
2013-06-11 19:56:00,56.1,56.1,29.57,NE,37,0.0,0.0,100,0.03,,-RA,0.83,VWS V12.08,2013-06-11 23:56:00,
2013-06-11 20:01:00,56.1,56.1,29.57,NE,38,0.0,0.0,100,0.04,,OVC085,0.84,VWS V12.08,2013-06-12 00:01:00,
2013-06-11 20:06:00,56.1,56.1,29.57,NE,37,0.0,0.0,100,0.05,,OVC085,0.85,VWS V12.08,2013-06-12 00:06:00,
2013-06-11 20:11:00,56.0,56.0,29.57,NE,37,0.0,0.0,100,0.05,,OVC085,0.85,VWS V12.08,2013-06-12 00:11:00,
2013-06-11 20:16:00,56.0,56.0,29.57,NE,37,0.0,0.0,100,0.06,,OVC085,0.86,VWS V12.08,2013-06-12 00:16:00,
2013-06-11 20:21:00,55.8,55.8,29.57,NE,37,0.0,0.0,100,0.06,,OVC085,0.86,VWS V12.08,2013-06-12 00:21:00,
2013-06-11 20:26:00,55.6,55.6,29.57,NE,37,0.0,0.0,100,0.07,,OVC085,0.87,VWS V12.08,2013-06-12 00:26:00,
2013-06-11 20:31:00,55.6,55.6,29.58,NE,38,0.0,0.0,100,0.07,,OVC085,0.87,VWS V12.08,2013-06-12 00:31:00,
2013-06-11 20:36:00,55.6,55.6,29.58,NE,37,0.0,0.0,100,0.07,,OVC085,0.87,VWS V12.08,2013-06-12 00:36:00,
2013-06-11 20:41:00,55.8,55.8,29.58,NE,37,0.0,0.0,100,0.07,,OVC045,0.88,VWS V12.08,2013-06-12 00:41:00,
2013-06-11 20:47:00,55.6,55.6,29.58,NE,37,0.0,0.0,100,0.08,,OVC045,0.89,VWS V12.08,2013-06-12 00:47:00,
2013-06-11 20:52:00,55.5,55.5,29.58,NE,37,0.0,0.0,100,0.08,,OVC045,0.90,VWS V12.08,2013-06-12 00:52:00,
2013-06-11 20:57:00,55.5,55.5,29.58,NE,37,0.0,0.0,100,0.09,,OVC045,0.91,VWS V12.08,2013-06-12 00:57:00,
2013-06-11 21:02:00,55.2,55.2,29.58,NE,37,0.0,0.0,100,0.08,,OVC045,0.92,VWS V12.08,2013-06-12 01:02:00,
2013-06-11 21:07:00,55.2,55.2,29.58,NE,37,0.0,0.0,100,0.09,,OVC045,0.93,VWS V12.08,2013-06-12 01:07:00,
2013-06-11 21:12:00,55.0,55.0,29.58,NE,37,0.0,0.0,100,0.09,,OVC045,0.94,VWS V12.08,2013-06-12 01:12:00,
2013-06-11 21:17:00,54.9,54.9,29.58,NE,37,0.0,1.0,100,0.10,,OVC045,0.95,VWS V12.08,2013-06-12 01:17:00,
2013-06-11 21:22:00,54.7,54.7,29.58,NE,38,0.0,0.0,100,0.10,,OVC045,0.96,VWS V12.08,2013-06-12 01:22:00,
2013-06-11 21:27:00,54.7,54.7,29.58,NE,37,0.0,0.0,100,0.10,,OVC045,0.96,VWS V12.08,2013-06-12 01:27:00,
2013-06-11 21:32:00,54.6,54.6,29.58,NE,37,0.0,0.0,100,0.09,,OVC045,0.96,VWS V12.08,2013-06-12 01:32:00,
2013-06-11 21:37:00,54.5,54.5,29.58,NE,37,0.0,0.0,100,0.10,,OVC045,0.97,VWS V12.08,2013-06-12 01:37:00,
2013-06-11 21:42:00,54.3,54.3,29.58,NE,37,0.0,0.0,100,0.10,,OVC045,0.97,VWS V12.08,2013-06-12 01:42:00,
2013-06-11 21:47:00,54.3,54.3,29.58,NE,37,0.0,0.0,100,0.11,,OVC045,0.98,VWS V12.08,2013-06-12 01:47:00,
2013-06-11 21:52:00,54.2,54.2,29.58,NE,37,0.0,0.0,100,0.10,,OVC045,0.99,VWS V12.08,2013-06-12 01:52:00,
2013-06-11 21:57:00,54.0,54.0,29.58,NE,37,0.0,0.0,100,0.10,,OVC045,0.99,VWS V12.08,2013-06-12 01:57:00,
2013-06-11 22:02:00,54.0,54.0,29.58,NE,37,0.0,0.0,100,0.08,,-RA,0.99,VWS V12.08,2013-06-12 02:02:00,
2013-06-11 22:07:00,53.9,53.9,29.58,NE,38,0.0,0.0,100,0.08,,-RA,0.99,VWS V12.08,2013-06-12 02:07:00,
2013-06-11 22:12:00,53.9,53.9,29.58,NE,37,0.0,0.0,100,0.05,,-RA,0.99,VWS V12.08,2013-06-12 02:12:00,
2013-06-11 22:17:00,53.7,53.7,29.58,NE,37,0.0,0.0,100,0.05,,-RA,0.99,VWS V12.08,2013-06-12 02:17:00,
2013-06-11 22:22:00,53.7,53.7,29.58,NE,37,0.0,0.0,100,0.05,,-RA,1.00,VWS V12.08,2013-06-12 02:22:00,
2013-06-11 22:27:00,53.7,53.7,29.58,NE,37,0.0,0.0,100,0.05,,-RA,1.00,VWS V12.08,2013-06-12 02:27:00,
2013-06-11 22:32:00,53.7,53.7,29.58,NE,37,0.0,0.0,100,0.05,,-RA,1.01,VWS V12.08,2013-06-12 02:32:00,
2013-06-11 22:37:00,53.7,53.7,29.58,NE,38,0.0,0.0,100,0.05,,-RA,1.01,VWS V12.08,2013-06-12 02:37:00,
2013-06-11 22:42:00,53.9,53.9,29.58,NE,37,0.0,0.0,100,0.05,,-RA,1.02,VWS V12.08,2013-06-12 02:42:00,
2013-06-11 22:47:00,53.9,53.9,29.58,NE,37,0.0,0.0,100,0.05,,-RA,1.02,VWS V12.08,2013-06-12 02:47:00,
2013-06-11 22:52:00,53.7,53.7,29.58,NE,37,0.0,0.0,100,0.05,,-RA,1.03,VWS V12.08,2013-06-12 02:52:00,
2013-06-11 22:58:00,53.7,53.7,29.58,NE,37,0.0,0.0,100,0.05,,-RA,1.03,VWS V12.08,2013-06-12 02:58:00,
2013-06-11 23:03:00,53.7,53.7,29.58,NE,37,0.0,0.0,100,0.04,,-RA,1.03,VWS V12.08,2013-06-12 03:03:00,
2013-06-11 23:08:00,53.7,53.7,29.58,NE,37,0.0,0.0,100,0.05,,-RA,1.04,VWS V12.08,2013-06-12 03:08:00,
2013-06-11 23:13:00,53.7,53.7,29.58,NE,37,0.0,0.0,100,0.05,,-RA,1.04,VWS V12.08,2013-06-12 03:13:00,
2013-06-11 23:18:00,53.7,53.7,29.58,NE,37,0.0,0.0,100,0.05,,-RA,1.04,VWS V12.08,2013-06-12 03:18:00,
2013-06-11 23:23:00,53.7,53.7,29.58,NE,37,0.0,0.0,100,0.06,,-RA,1.05,VWS V12.08,2013-06-12 03:23:00,
2013-06-11 23:28:00,53.7,53.7,29.58,NE,37,0.0,0.0,100,0.06,,-RA,1.06,VWS V12.08,2013-06-12 03:28:00,
2013-06-11 23:33:00,53.6,53.6,29.58,NE,37,0.0,0.0,100,0.06,,-RA,1.06,VWS V12.08,2013-06-12 03:33:00,
2013-06-11 23:38:00,53.6,53.6,29.58,NE,37,0.0,0.0,100,0.06,,-RA,1.07,VWS V12.08,2013-06-12 03:38:00,
2013-06-11 23:43:00,53.6,53.6,29.58,NE,38,0.0,1.0,100,0.06,,-RA,1.07,VWS V12.08,2013-06-12 03:43:00,
2013-06-11 23:48:00,53.6,53.6,29.58,NE,37,0.0,1.0,100,0.06,,-RA,1.07,VWS V12.08,2013-06-12 03:48:00,
2013-06-11 23:53:00,53.6,53.6,29.58,NE,37,0.0,0.0,100,0.06,,-RA,1.08,VWS V12.08,2013-06-12 03:53:00,
2013-06-11 23:58:00,53.6,53.6,29.57,NE,37,0.0,1.0,100,0.07,,-RA,1.09,VWS V12.08,2013-06-12 03:58:00,